SCBA/BBA METAR and TAF weather

Enter ICAO airport designator
Station Type Date Time Source
SCBA METAR 2019/06/18 05:00 UTC NOAA

SCBA 180500Z AUTO 00000KT CAVOK M06/M07 Q1017


Station Type Date Time Source
SCBA Decoded METAR 2019/06/18 05:00 UTC NOAA

Balmaceda, Chile (SCBA) 45-55S 071-41W 520M
Jun 18, 2019 - 01:00 AM EDT / 2019.06.18 0500 UTC
Wind: Calm:0
Visibility: greater than 7 mile(s):0
Temperature: 21 F (-6 C)
Dew Point: 19 F (-7 C)
Relative Humidity: 92%
Pressure (altimeter): 30.03 in. Hg (1017 hPa)
ob: SCBA 180500Z AUTO 00000KT CAVOK M06/M07 Q1017
cycle: 5

Station Type Date Time Source
SCBA TAF 2019/06/18 06:03 UTC NOAA

TAF SCBA 180403Z 1806/1906 30004KT CAVOK TNM04/1812Z TX04/1818Z
BECMG 1810/1812 30010KT
BECMG 1814/1816 30016KT FEW030

Example: see airport list